createdAt,value
2019-02-18T00:01:04.095Z,99.90
2019-02-18T00:03:33.533Z,99.90
2019-02-18T00:06:02.657Z,99.90
2019-02-18T00:08:32.185Z,99.90
2019-02-18T00:11:01.344Z,99.90
2019-02-18T00:13:30.766Z,99.90
2019-02-18T00:16:00.348Z,99.90
2019-02-18T00:18:29.666Z,99.90
2019-02-18T00:20:59.633Z,99.90
2019-02-18T00:23:29.181Z,99.90
2019-02-18T00:25:58.778Z,99.90
2019-02-18T00:28:29.888Z,99.90
2019-02-18T00:30:59.404Z,99.90
2019-02-18T00:33:28.728Z,99.90
2019-02-18T00:35:57.988Z,99.90
2019-02-18T00:38:27.141Z,99.90
2019-02-18T00:40:56.315Z,99.90
2019-02-18T00:43:25.573Z,99.90
2019-02-18T00:45:55.127Z,99.90
2019-02-18T00:48:24.284Z,99.90
2019-02-18T00:50:54.111Z,99.90
2019-02-18T00:53:25.198Z,99.90
2019-02-18T00:55:55.519Z,99.90
2019-02-18T00:58:25.992Z,99.90
2019-02-18T01:00:55.132Z,99.90
2019-02-18T01:03:24.362Z,99.90
2019-02-18T01:05:53.709Z,99.90
2019-02-18T01:08:23.327Z,99.90
2019-02-18T01:10:52.579Z,99.90
2019-02-18T01:13:22.619Z,99.90
2019-02-18T01:15:51.820Z,99.90
2019-02-18T01:18:21.341Z,99.90
2019-02-18T01:20:50.610Z,99.90
2019-02-18T01:23:19.863Z,99.90
2019-02-18T01:25:49.125Z,99.90
2019-02-18T01:28:18.735Z,99.90
2019-02-18T01:30:47.895Z,99.90
2019-02-18T01:33:17.476Z,99.90
2019-02-18T01:35:46.690Z,99.90
2019-02-18T01:38:17.047Z,99.90
2019-02-18T01:40:46.209Z,99.90
2019-02-18T01:43:15.787Z,99.90
2019-02-18T01:45:45.571Z,99.90
2019-02-18T01:48:14.755Z,99.90
2019-02-18T01:50:44.005Z,99.90
2019-02-18T01:53:13.295Z,99.90
2019-02-18T01:55:42.578Z,99.90
2019-02-18T01:58:11.863Z,99.90
2019-02-18T02:00:41.129Z,99.90
2019-02-18T02:03:10.361Z,99.90
2019-02-18T02:05:39.528Z,99.90
2019-02-18T02:08:08.993Z,99.90
2019-02-18T02:10:38.172Z,99.90
2019-02-18T02:13:27.663Z,99.90
2019-02-18T02:15:57.246Z,99.90
2019-02-18T02:18:26.491Z,99.90
2019-02-18T02:20:55.832Z,99.90
2019-02-18T02:23:25.086Z,99.90
2019-02-18T02:25:54.847Z,99.90
2019-02-18T02:28:24.036Z,99.90
2019-02-18T02:30:53.324Z,99.90
2019-02-18T02:33:22.599Z,99.90
2019-02-18T02:35:51.768Z,99.90
2019-02-18T02:38:21.369Z,99.90
2019-02-18T02:40:50.512Z,99.90
2019-02-18T02:43:19.770Z,99.90
2019-02-18T02:45:49.080Z,99.90
2019-02-18T02:48:18.310Z,99.90
2019-02-18T02:50:47.568Z,99.90
2019-02-18T02:53:16.809Z,99.90
2019-02-18T02:55:45.895Z,99.90
2019-02-18T02:58:15.040Z,99.90
2019-02-18T03:00:44.222Z,99.90
2019-02-18T03:03:13.382Z,99.90
2019-02-18T03:05:44.010Z,99.90
2019-02-18T03:08:20.461Z,99.90
2019-02-18T03:10:44.825Z,99.90
2019-02-18T03:13:14.034Z,99.90
2019-02-18T03:15:43.235Z,99.90
2019-02-18T03:18:12.432Z,99.90
2019-02-18T03:20:41.568Z,99.90
2019-02-18T03:23:11.093Z,99.90
2019-02-18T03:25:40.313Z,99.90
2019-02-18T03:28:33.109Z,99.90
2019-02-18T03:31:09.355Z,99.90
2019-02-18T03:33:41.921Z,99.90
2019-02-18T03:36:11.094Z,99.90
2019-02-18T03:38:40.298Z,99.90
2019-02-18T03:41:09.488Z,99.90
2019-02-18T03:43:38.642Z,99.90
2019-02-18T03:46:07.813Z,99.90
2019-02-18T03:48:37.962Z,99.90
2019-02-18T03:51:07.123Z,99.90
2019-02-18T03:53:36.291Z,99.90
2019-02-18T03:56:05.574Z,99.90
2019-02-18T03:58:34.738Z,99.90
2019-02-18T04:01:03.976Z,99.90
2019-02-18T04:03:33.193Z,99.90
2019-02-18T04:06:03.253Z,99.90
2019-02-18T04:08:42.456Z,99.90
2019-02-18T04:11:03.290Z,99.90
2019-02-18T04:13:32.438Z,99.90
2019-02-18T04:16:01.646Z,99.90
2019-02-18T04:18:30.818Z,99.90
2019-02-18T04:21:00.014Z,99.90
2019-02-18T04:23:29.152Z,99.90
2019-02-18T04:25:58.319Z,99.90
2019-02-18T04:28:27.534Z,99.90
2019-02-18T04:31:04.001Z,99.90
2019-02-18T04:33:33.267Z,99.90
2019-02-18T04:36:02.450Z,99.90
2019-02-18T04:38:31.694Z,99.90
2019-02-18T04:41:00.847Z,99.90
2019-02-18T04:43:43.478Z,99.90
2019-02-18T04:46:18.979Z,99.90
2019-02-18T04:49:03.821Z,99.90
2019-02-18T04:51:42.546Z,99.90
2019-02-18T04:54:15.581Z,99.90
2019-02-18T04:56:52.650Z,99.90
2019-02-18T04:59:34.683Z,99.90
2019-02-18T05:02:07.813Z,99.90
2019-02-18T05:05:03.140Z,99.90
2019-02-18T05:08:07.111Z,99.90
2019-02-18T05:14:01.029Z,99.90
2019-02-18T05:16:50.565Z,99.90
2019-02-18T05:19:24.062Z,99.90
2019-02-18T05:22:04.436Z,99.90
2019-02-18T05:24:36.198Z,99.90
2019-02-18T05:27:13.402Z,99.90
2019-02-18T05:30:09.110Z,99.90
2019-02-18T05:32:51.185Z,99.90
2019-02-18T05:35:30.441Z,99.90
2019-02-18T05:38:03.135Z,99.90
2019-02-18T05:40:56.249Z,99.90
2019-02-18T05:43:59.141Z,99.90
2019-02-18T05:46:51.092Z,99.90
2019-02-18T05:49:25.865Z,99.90
2019-02-18T05:52:15.380Z,99.90
2019-02-18T05:54:58.541Z,99.90
2019-02-18T05:57:33.944Z,99.90
2019-02-18T06:00:15.700Z,99.90
2019-02-18T06:02:53.179Z,99.90
2019-02-18T06:05:30.174Z,99.90
2019-02-18T06:08:00.211Z,99.90
2019-02-18T06:10:35.291Z,99.90
2019-02-18T06:13:10.120Z,99.90
2019-02-18T06:15:40.702Z,99.90
2019-02-18T06:18:11.824Z,99.90
2019-02-18T06:20:43.983Z,99.90
2019-02-18T06:23:19.069Z,99.90
2019-02-18T06:25:49.431Z,99.90
2019-02-18T06:28:21.712Z,99.90
2019-02-18T06:30:54.910Z,99.90
2019-02-18T06:33:28.392Z,99.90
2019-02-18T06:35:57.868Z,99.90
2019-02-18T06:38:32.512Z,99.90
2019-02-18T06:41:03.463Z,99.90
2019-02-18T06:43:36.762Z,99.90
2019-02-18T06:46:31.440Z,99.90
2019-02-18T06:49:08.832Z,99.90
2019-02-18T06:51:43.209Z,99.90
2019-02-18T06:54:16.599Z,99.90
2019-02-18T06:57:08.054Z,99.90
2019-02-18T06:59:45.121Z,99.90
2019-02-18T07:02:37.500Z,99.90
2019-02-18T07:05:26.570Z,99.90
2019-02-18T07:08:22.740Z,99.90
2019-02-18T07:11:15.644Z,99.90
2019-02-18T07:13:47.729Z,99.90
2019-02-18T07:16:23.324Z,99.90
2019-02-18T07:18:53.378Z,99.90
2019-02-18T07:21:22.860Z,99.90
2019-02-18T07:23:52.738Z,99.90
2019-02-18T07:26:32.342Z,99.90
2019-02-18T07:29:01.566Z,99.90
2019-02-18T07:31:50.990Z,99.90
2019-02-18T07:34:21.379Z,99.90
2019-02-18T07:36:53.430Z,99.90
2019-02-18T07:40:28.215Z,99.90
2019-02-18T07:41:58.508Z,99.90
2019-02-18T07:44:27.919Z,99.90
2019-02-18T07:47:02.469Z,99.90
2019-02-18T07:49:31.719Z,99.90
2019-02-18T07:52:01.808Z,99.90
2019-02-18T07:54:32.976Z,99.90
2019-02-18T07:57:03.277Z,99.90
2019-02-18T07:59:35.756Z,99.90
2019-02-18T08:02:06.619Z,99.90
2019-02-18T08:04:35.846Z,99.90
2019-02-18T08:07:07.803Z,99.90
2019-02-18T08:09:38.526Z,99.90
2019-02-18T08:12:12.345Z,99.90
2019-02-18T08:14:43.962Z,99.90
2019-02-18T08:17:13.536Z,99.90
2019-02-18T08:20:07.423Z,99.90
2019-02-18T08:22:37.579Z,99.90
2019-02-18T08:25:07.673Z,99.90
2019-02-18T08:27:40.043Z,99.90
2019-02-18T08:30:23.553Z,99.90
2019-02-18T08:32:55.207Z,99.90
2019-02-18T08:35:24.559Z,99.90
2019-02-18T08:37:54.250Z,99.90
2019-02-18T08:40:27.609Z,99.90
2019-02-18T08:42:59.767Z,99.90
2019-02-18T08:45:31.857Z,99.90
2019-02-18T08:48:01.841Z,99.90
2019-02-18T08:50:35.903Z,99.90
2019-02-18T08:53:05.205Z,97.50
2019-02-18T08:55:35.200Z,97.90
2019-02-18T08:58:04.992Z,89.90
2019-02-18T09:23:06.043Z,74.50
2019-02-18T09:25:39.780Z,70.90
2019-02-18T09:28:09.091Z,65.80
2019-02-18T09:31:14.339Z,61.30
2019-02-18T09:33:43.668Z,62.60
2019-02-18T09:36:12.900Z,58.80
2019-02-18T09:38:42.171Z,57.50
2019-02-18T09:41:11.501Z,59.90
2019-02-18T09:43:41.332Z,58.90
2019-02-18T09:46:10.815Z,56.40
2019-02-18T09:48:42.185Z,55.20
2019-02-18T09:51:11.568Z,53.60
2019-02-18T10:49:19.325Z,57.20
2019-02-18T10:51:40.418Z,59.10
2019-02-18T11:22:37.846Z,67.30
2019-02-18T11:25:08.495Z,66.30
2019-02-18T11:27:37.792Z,68.80
2019-02-18T11:30:09.749Z,68.10
2019-02-18T11:32:41.781Z,73.60
2019-02-18T11:35:16.982Z,74.10
2019-02-18T11:37:49.322Z,70.60
2019-02-18T11:40:32.391Z,74.10
2019-02-18T11:43:56.075Z,74.00
2019-02-18T11:46:25.445Z,73.10
2019-02-18T11:48:55.591Z,71.70
2019-02-18T11:51:27.876Z,76.60
2019-02-18T11:53:57.116Z,72.80
2019-02-18T11:56:26.385Z,70.50
2019-02-18T11:58:55.853Z,70.20
2019-02-18T12:01:25.165Z,75.40
2019-02-18T12:03:54.595Z,76.60
2019-02-18T12:06:23.931Z,80.90
2019-02-18T12:08:53.329Z,78.40
2019-02-18T12:11:22.721Z,78.10
2019-02-18T12:13:52.294Z,79.70
2019-02-18T12:16:21.991Z,82.90
2019-02-18T12:18:51.259Z,87.60
2019-02-18T12:21:21.285Z,90.40
2019-02-18T12:23:50.813Z,91.90
2019-02-18T12:26:20.141Z,90.00
2019-02-18T12:28:49.873Z,93.00
2019-02-18T12:31:19.269Z,92.60
2019-02-18T12:33:48.572Z,95.20
2019-02-18T12:36:17.885Z,97.30
2019-02-18T12:38:47.123Z,95.60
2019-02-18T12:41:16.507Z,97.20
2019-02-18T12:43:46.154Z,96.80
2019-02-18T12:46:16.185Z,96.60
2019-02-18T12:48:45.817Z,99.40
2019-02-18T12:51:15.218Z,99.90
2019-02-18T12:53:46.273Z,95.60
2019-02-18T12:56:15.629Z,96.80
2019-02-18T12:58:54.449Z,99.30
2019-02-18T13:01:16.441Z,99.70
2019-02-18T13:03:45.931Z,96.60
2019-02-18T13:06:15.233Z,97.40
2019-02-18T13:08:44.997Z,99.90
2019-02-18T13:11:17.089Z,99.50
2019-02-18T13:13:46.535Z,98.10
2019-02-18T13:16:16.103Z,97.00
2019-02-18T13:18:45.504Z,96.80
2019-02-18T13:21:14.827Z,99.90
2019-02-18T13:23:44.108Z,98.40
2019-02-18T13:26:13.443Z,99.90
2019-02-18T13:28:42.715Z,99.90
2019-02-18T13:31:12.375Z,99.60
2019-02-18T13:33:41.661Z,99.90
2019-02-18T13:36:14.479Z,95.90
2019-02-18T13:38:43.855Z,94.30
2019-02-18T13:41:13.297Z,94.70
2019-02-18T13:43:42.541Z,96.90
2019-02-18T13:46:12.800Z,94.90
2019-02-18T13:48:42.032Z,91.60
2019-02-18T13:51:11.402Z,92.50
2019-02-18T13:53:40.674Z,93.70
2019-02-18T13:56:10.574Z,92.30
2019-02-18T13:58:45.237Z,93.00
2019-02-18T14:01:17.982Z,96.60
2019-02-18T14:03:47.478Z,99.90
2019-02-18T14:06:16.969Z,99.90
2019-02-18T14:08:46.278Z,99.60
2019-02-18T14:11:15.693Z,99.90
2019-02-18T14:13:45.452Z,99.90
2019-02-18T14:16:14.816Z,99.90
2019-02-18T14:18:44.133Z,99.90
2019-02-18T14:21:13.810Z,99.40
2019-02-18T14:23:43.072Z,99.90
2019-02-18T14:26:12.537Z,99.90
2019-02-18T14:28:42.193Z,99.90
2019-02-18T14:31:11.445Z,99.90
2019-02-18T14:33:54.470Z,99.90
2019-02-18T14:36:23.843Z,85.50
2019-02-18T14:38:53.269Z,67.60
2019-02-18T14:41:23.911Z,65.30
2019-02-18T14:43:55.653Z,65.90
2019-02-18T14:46:25.139Z,68.20
2019-02-18T14:48:54.373Z,72.10
2019-02-18T14:51:23.722Z,71.60
2019-02-18T14:53:53.036Z,73.10
2019-02-18T14:56:22.758Z,75.10
2019-02-18T14:58:52.063Z,70.60
2019-02-18T15:01:21.362Z,73.90
2019-02-18T15:03:50.794Z,70.00
2019-02-18T15:06:20.042Z,65.90
2019-02-18T15:08:49.724Z,68.20
2019-02-18T15:11:19.088Z,64.60
2019-02-18T15:13:48.551Z,61.30
2019-02-18T15:16:20.133Z,60.80
2019-02-18T15:18:49.503Z,60.20
2019-02-18T15:21:18.871Z,61.20
2019-02-18T15:23:48.468Z,62.00
2019-02-18T15:26:17.807Z,60.80
2019-02-18T15:28:47.063Z,64.90
2019-02-18T15:31:16.793Z,66.10
2019-02-18T15:33:46.082Z,64.30
2019-02-18T15:36:15.428Z,66.90
2019-02-18T15:38:44.836Z,67.30
2019-02-18T15:41:14.237Z,69.20
2019-02-18T15:43:43.586Z,70.50
2019-02-18T15:46:12.970Z,71.80
2019-02-18T15:48:42.309Z,67.70
2019-02-18T15:51:11.535Z,71.80
2019-02-18T15:53:41.181Z,78.00
2019-02-18T15:56:10.708Z,86.60
2019-02-18T15:58:40.097Z,92.00
2019-02-18T16:01:09.384Z,95.20
2019-02-18T16:03:38.589Z,95.90
2019-02-18T16:06:07.909Z,97.80
2019-02-18T16:08:37.222Z,98.70
2019-02-18T16:11:06.504Z,99.90
2019-02-18T16:13:35.857Z,99.90
2019-02-18T16:16:05.381Z,99.90
2019-02-18T16:18:34.816Z,99.90
2019-02-18T16:21:04.234Z,99.90
2019-02-18T16:23:34.700Z,99.90
2019-02-18T16:26:04.013Z,99.90
2019-02-18T16:28:33.292Z,99.90
2019-02-18T16:31:02.633Z,99.90
2019-02-18T16:33:31.840Z,99.90
2019-02-18T16:36:01.133Z,99.90
2019-02-18T16:38:30.439Z,99.90
2019-02-18T16:40:59.801Z,99.90
2019-02-18T16:43:30.755Z,99.90
2019-02-18T16:46:00.117Z,99.90
2019-02-18T16:48:29.878Z,99.90
2019-02-18T16:50:59.511Z,99.90
2019-02-18T16:53:29.736Z,99.90
2019-02-18T16:55:59.050Z,99.90
2019-02-18T16:58:28.276Z,99.90
2019-02-18T17:00:57.962Z,99.90
2019-02-18T17:03:27.421Z,99.90
2019-02-18T17:05:57.048Z,99.90
2019-02-18T17:08:26.522Z,99.90
2019-02-18T17:10:55.936Z,99.90
2019-02-18T17:13:25.315Z,99.90
2019-02-18T17:15:54.676Z,99.90
2019-02-18T17:18:23.960Z,99.90
2019-02-18T17:20:53.664Z,99.90
2019-02-18T17:26:52.013Z,99.90
2019-02-18T17:29:21.357Z,99.90
2019-02-18T17:31:50.791Z,99.90
2019-02-18T17:34:20.133Z,99.90
2019-02-18T17:36:49.408Z,99.90
2019-02-18T17:39:18.927Z,99.90
2019-02-18T17:41:48.359Z,99.90
2019-02-18T17:44:20.193Z,99.90
2019-02-18T17:46:48.668Z,99.90
2019-02-18T17:49:18.030Z,99.90
2019-02-18T17:51:47.360Z,99.90
2019-02-18T17:54:17.484Z,99.90
2019-02-18T17:56:46.923Z,99.90
2019-02-18T17:59:16.323Z,99.90
2019-02-18T18:01:45.689Z,99.90
2019-02-18T18:04:15.062Z,99.90
2019-02-18T18:06:44.380Z,99.90
2019-02-18T18:09:13.836Z,99.90
2019-02-18T18:11:43.208Z,99.90
2019-02-18T18:14:12.891Z,99.90
2019-02-18T18:16:42.355Z,99.90
2019-02-18T18:19:11.668Z,99.90
2019-02-18T18:21:40.996Z,99.90
2019-02-18T18:24:10.418Z,99.90
2019-02-18T18:26:40.001Z,99.90
2019-02-18T18:29:09.424Z,99.90
2019-02-18T18:31:39.123Z,99.90
2019-02-18T18:34:08.634Z,99.90
2019-02-18T18:36:37.900Z,99.90
2019-02-18T18:39:07.251Z,99.90
2019-02-18T18:41:36.564Z,99.90
2019-02-18T18:44:05.826Z,99.90
2019-02-18T18:46:35.154Z,99.90
2019-02-18T18:49:04.470Z,99.90
2019-02-18T18:51:35.400Z,99.90
2019-02-18T18:54:04.676Z,99.90
2019-02-18T18:56:33.926Z,99.90
2019-02-18T18:59:03.184Z,99.90
2019-02-18T19:01:32.482Z,99.90
2019-02-18T19:04:01.738Z,99.90
2019-02-18T19:06:31.148Z,99.90
2019-02-18T19:09:00.504Z,99.90
2019-02-18T19:11:30.256Z,99.90
2019-02-18T19:14:02.392Z,99.90
2019-02-18T19:16:31.736Z,99.90
2019-02-18T19:19:33.370Z,99.90
2019-02-18T19:22:02.842Z,99.90
2019-02-18T19:24:32.416Z,99.90
2019-02-18T19:27:04.844Z,99.90
2019-02-18T19:29:34.195Z,99.90
2019-02-18T19:32:03.438Z,99.90
2019-02-18T19:34:32.845Z,99.90
2019-02-18T19:37:02.148Z,99.90
2019-02-18T19:39:31.591Z,99.90
2019-02-18T19:42:01.487Z,99.90
2019-02-18T19:44:30.893Z,99.90
2019-02-18T19:47:00.341Z,99.90
2019-02-18T19:49:29.739Z,99.90
2019-02-18T19:52:28.088Z,99.90
2019-02-18T19:54:57.447Z,99.90
2019-02-18T19:57:26.847Z,99.90
2019-02-18T19:59:56.137Z,99.90
2019-02-18T20:02:32.356Z,99.90
2019-02-18T20:05:01.646Z,99.90
2019-02-18T20:07:33.406Z,99.90
2019-02-18T20:10:03.937Z,99.90
2019-02-18T20:17:11.215Z,99.90
2019-02-18T20:19:45.641Z,99.90
2019-02-18T20:22:15.135Z,99.90
2019-02-18T20:24:44.699Z,99.90
2019-02-18T20:27:14.107Z,99.90
2019-02-18T20:29:43.615Z,99.90
2019-02-18T20:32:13.093Z,99.90
2019-02-18T20:34:42.615Z,99.90
2019-02-18T20:37:11.966Z,99.90
2019-02-18T20:39:47.814Z,99.90
2019-02-18T20:42:18.591Z,99.90
2019-02-18T20:44:47.921Z,99.90
2019-02-18T20:47:17.639Z,99.90
2019-02-18T20:49:46.971Z,99.90
2019-02-18T20:52:16.197Z,99.90
2019-02-18T20:54:45.429Z,99.90
2019-02-18T20:57:14.712Z,99.90
2019-02-18T20:59:43.948Z,99.90
2019-02-18T21:02:13.555Z,99.90
2019-02-18T21:04:42.809Z,99.90
2019-02-18T21:07:12.206Z,99.90
2019-02-18T21:09:41.621Z,99.90
2019-02-18T21:12:10.985Z,99.90
2019-02-18T21:14:40.340Z,99.90
2019-02-18T21:17:11.434Z,99.90
2019-02-18T21:19:43.873Z,99.90
2019-02-18T21:22:13.394Z,99.90
2019-02-18T21:24:42.738Z,99.90
2019-02-18T21:27:12.082Z,99.90
2019-02-18T21:29:41.727Z,99.90
2019-02-18T21:32:11.121Z,99.90
2019-02-18T21:34:40.759Z,99.90
2019-02-18T21:37:10.095Z,99.90
2019-02-18T21:39:39.375Z,99.90
2019-02-18T21:42:09.080Z,99.90
2019-02-18T21:44:38.821Z,99.90
2019-02-18T21:47:08.032Z,99.90
2019-02-18T21:49:37.322Z,99.90
2019-02-18T21:52:06.685Z,99.90
2019-02-18T21:54:35.930Z,99.90
2019-02-18T21:57:05.219Z,99.90
2019-02-18T21:59:35.031Z,99.90
2019-02-18T22:02:04.263Z,99.90
2019-02-18T22:04:33.520Z,99.90
2019-02-18T22:07:03.370Z,99.90
2019-02-18T22:09:32.742Z,99.90
2019-02-18T22:12:02.029Z,99.90
2019-02-18T22:14:33.384Z,99.90
2019-02-18T22:17:02.815Z,99.90
2019-02-18T22:19:32.105Z,99.90
2019-02-18T22:22:01.309Z,99.90
2019-02-18T22:24:30.816Z,99.90
2019-02-18T22:27:00.185Z,99.90
2019-02-18T22:29:29.820Z,99.90
2019-02-18T22:31:59.075Z,99.90
2019-02-18T22:34:28.385Z,99.90
2019-02-18T22:36:57.699Z,99.90
2019-02-18T22:39:27.039Z,99.90
2019-02-18T22:41:56.390Z,99.90
2019-02-18T22:44:25.623Z,99.90
2019-02-18T22:46:54.956Z,99.90
2019-02-18T22:49:24.329Z,99.90
2019-02-18T22:51:54.077Z,99.90
2019-02-18T22:54:23.308Z,99.90
2019-02-18T22:56:52.634Z,99.90
2019-02-18T22:59:21.850Z,99.90
2019-02-18T23:01:51.481Z,99.90
2019-02-18T23:04:20.834Z,99.90
2019-02-18T23:06:50.146Z,99.90
2019-02-18T23:09:19.424Z,99.90
2019-02-18T23:11:48.793Z,99.90
2019-02-18T23:14:18.061Z,99.90
2019-02-18T23:16:47.548Z,99.90
2019-02-18T23:19:16.987Z,99.90
2019-02-18T23:21:46.456Z,99.90
2019-02-18T23:24:15.710Z,99.90
2019-02-18T23:26:44.947Z,99.90
2019-02-18T23:29:14.279Z,99.90
2019-02-18T23:31:44.081Z,99.90
2019-02-18T23:34:13.433Z,99.90
2019-02-18T23:36:42.751Z,99.90
2019-02-18T23:39:12.005Z,99.90
2019-02-18T23:41:41.294Z,99.90
2019-02-18T23:44:10.617Z,99.90
2019-02-18T23:46:39.899Z,99.90
2019-02-18T23:49:09.203Z,99.90
2019-02-18T23:51:38.493Z,99.90
2019-02-18T23:54:07.711Z,99.90
2019-02-18T23:56:36.935Z,99.90
2019-02-18T23:59:06.205Z,99.90
